createdAt,value
2019-03-16T00:02:35.154Z,13.60
2019-03-16T00:07:39.365Z,11.00
2019-03-16T00:12:43.695Z,11.63
2019-03-16T00:17:47.945Z,15.53
2019-03-16T00:22:52.278Z,14.43
2019-03-16T00:27:56.491Z,13.17
2019-03-16T00:33:00.729Z,13.67
2019-03-16T00:38:04.964Z,13.83
2019-03-16T00:43:09.222Z,13.37
2019-03-16T00:48:13.635Z,16.03
2019-03-16T00:53:17.877Z,20.43
2019-03-16T00:58:22.304Z,14.07
2019-03-16T01:03:26.589Z,13.13
2019-03-16T01:08:30.821Z,19.67
2019-03-16T01:13:35.046Z,20.27
2019-03-16T01:18:39.288Z,13.17
2019-03-16T01:23:43.510Z,17.63
2019-03-16T01:28:47.765Z,20.77
2019-03-16T01:33:52.033Z,25.93
2019-03-16T01:38:56.270Z,19.33
2019-03-16T01:44:00.517Z,15.87
2019-03-16T01:49:04.927Z,24.10
2019-03-16T01:54:09.173Z,12.87
2019-03-16T01:59:13.395Z,18.60
2019-03-16T02:04:17.614Z,25.90
2019-03-16T02:09:21.847Z,13.63
2019-03-16T02:14:26.080Z,21.60
2019-03-16T02:19:30.335Z,14.40
2019-03-16T02:24:34.600Z,19.20
2019-03-16T02:29:38.836Z,17.17
2019-03-16T02:34:43.070Z,15.00
2019-03-16T02:39:47.305Z,14.90
2019-03-16T02:44:51.534Z,20.60
2019-03-16T02:49:55.756Z,18.43
2019-03-16T02:54:59.997Z,21.10
2019-03-16T03:00:05.660Z,17.37
2019-03-16T03:05:10.246Z,12.90
2019-03-16T03:10:14.781Z,20.53
2019-03-16T03:15:19.009Z,17.67
2019-03-16T03:20:23.258Z,18.70
2019-03-16T03:25:27.476Z,18.40
2019-03-16T03:30:31.706Z,21.57
2019-03-16T03:35:35.930Z,23.10
2019-03-16T03:40:40.377Z,11.67
2019-03-16T03:45:44.624Z,14.23
2019-03-16T03:50:48.850Z,20.33
2019-03-16T03:55:53.076Z,23.23
2019-03-16T04:00:58.577Z,15.77
2019-03-16T04:06:02.821Z,18.93
2019-03-16T04:11:07.065Z,17.80
2019-03-16T04:16:11.283Z,19.23
2019-03-16T04:21:15.500Z,18.90
2019-03-16T04:26:19.723Z,21.50
2019-03-16T04:31:23.950Z,15.87
2019-03-16T04:36:28.196Z,18.33
2019-03-16T04:41:32.415Z,13.60
2019-03-16T04:46:36.636Z,20.40
2019-03-16T04:51:40.870Z,16.60
2019-03-16T04:56:45.092Z,15.70
2019-03-16T05:01:49.319Z,24.47
2019-03-16T05:06:53.605Z,21.43
2019-03-16T05:11:57.838Z,22.43
2019-03-16T05:17:02.254Z,21.80
2019-03-16T05:22:06.512Z,13.53
2019-03-16T05:27:10.790Z,18.33
2019-03-16T05:32:15.047Z,22.63
2019-03-16T05:37:19.267Z,13.67
2019-03-16T05:42:23.627Z,22.73
2019-03-16T05:47:27.899Z,24.83
2019-03-16T05:52:32.506Z,22.90
2019-03-16T05:57:36.745Z,14.80
2019-03-16T06:02:40.979Z,21.57
2019-03-16T06:07:45.197Z,18.50
2019-03-16T06:12:49.460Z,15.17
2019-03-16T06:17:53.705Z,24.80
2019-03-16T06:22:57.940Z,19.67
2019-03-16T06:28:02.164Z,17.90
2019-03-16T06:33:06.402Z,26.23
2019-03-16T06:38:10.657Z,13.93
2019-03-16T06:43:14.878Z,14.30
2019-03-16T06:48:19.107Z,20.93
2019-03-16T06:53:23.329Z,23.53
2019-03-16T06:58:27.567Z,15.07
2019-03-16T07:03:31.891Z,19.13
2019-03-16T07:08:36.124Z,20.60
2019-03-16T07:13:40.360Z,21.03
2019-03-16T07:18:44.606Z,20.43
2019-03-16T07:23:48.830Z,19.10
2019-03-16T07:28:53.055Z,19.40
2019-03-16T07:33:57.321Z,15.90
2019-03-16T07:39:01.547Z,20.90
2019-03-16T07:44:05.790Z,15.80
2019-03-16T07:49:10.029Z,25.73
2019-03-16T07:54:14.323Z,19.33
2019-03-16T07:59:18.563Z,22.70
2019-03-16T08:04:22.805Z,29.17
2019-03-16T08:09:27.044Z,18.43
2019-03-16T08:14:31.275Z,22.60
2019-03-16T08:19:35.621Z,19.13
2019-03-16T08:24:39.883Z,21.93
2019-03-16T08:29:44.200Z,20.97
2019-03-16T08:34:48.634Z,20.43
2019-03-16T08:39:52.980Z,19.07
2019-03-16T08:44:57.267Z,19.20
2019-03-16T08:50:01.668Z,16.23
2019-03-16T08:55:06.426Z,17.57
2019-03-16T09:00:11.115Z,17.10
2019-03-16T09:05:15.369Z,23.13
2019-03-16T09:10:19.595Z,23.53
2019-03-16T09:15:24.064Z,17.60
2019-03-16T09:20:28.314Z,18.17
2019-03-16T09:25:32.572Z,14.27
2019-03-16T09:30:36.941Z,18.40
2019-03-16T09:35:41.211Z,19.97
2019-03-16T09:40:45.492Z,15.67
2019-03-16T09:45:49.777Z,18.33
2019-03-16T09:50:54.015Z,19.10
2019-03-16T09:55:58.287Z,13.67
2019-03-16T10:01:02.909Z,17.87
2019-03-16T10:06:07.263Z,15.53
2019-03-16T10:11:11.524Z,20.00
2019-03-16T10:16:15.786Z,15.77
2019-03-16T10:21:20.129Z,16.17
2019-03-16T10:26:24.748Z,15.63
2019-03-16T10:31:29.007Z,10.00
2019-03-16T10:36:33.442Z,18.80
2019-03-16T10:41:37.689Z,15.27
2019-03-16T10:46:41.977Z,18.47
2019-03-16T10:51:46.233Z,15.47
2019-03-16T10:56:50.577Z,26.13
2019-03-16T11:01:54.841Z,11.53
2019-03-16T11:06:59.137Z,7.13
2019-03-16T11:12:03.359Z,7.23
2019-03-16T11:17:07.739Z,13.70
2019-03-16T11:22:11.972Z,13.97
2019-03-16T11:27:17.333Z,18.13
2019-03-16T11:32:21.706Z,4.97
2019-03-16T11:37:25.978Z,12.23
2019-03-16T11:42:30.231Z,4.87
2019-03-16T11:47:34.473Z,6.60
2019-03-16T11:52:38.727Z,7.10
2019-03-16T11:57:42.992Z,6.23
2019-03-16T12:02:47.239Z,7.30
2019-03-16T12:07:51.489Z,5.27
2019-03-16T12:12:55.740Z,7.53
2019-03-16T12:18:00.020Z,7.00
2019-03-16T12:23:04.289Z,4.00
2019-03-16T12:28:08.546Z,4.90
2019-03-16T12:33:12.835Z,8.10
2019-03-16T12:38:17.066Z,6.17
2019-03-16T12:43:21.315Z,6.87
2019-03-16T12:48:25.658Z,8.23
2019-03-16T12:53:29.928Z,6.60
2019-03-16T12:58:34.168Z,10.07
2019-03-16T13:03:38.411Z,7.57
2019-03-16T13:08:42.732Z,9.33
2019-03-16T13:13:46.974Z,7.10
2019-03-16T13:18:51.228Z,7.27
2019-03-16T13:23:55.469Z,8.97
2019-03-16T13:28:59.747Z,7.63
2019-03-16T13:34:04.205Z,9.13
2019-03-16T13:39:08.789Z,4.47
2019-03-16T13:44:13.005Z,3.77
2019-03-16T13:49:17.238Z,5.97
2019-03-16T13:54:21.467Z,7.30
2019-03-16T13:59:25.711Z,2.97
2019-03-16T14:04:29.958Z,4.80
2019-03-16T14:09:34.203Z,4.33
2019-03-16T14:14:38.881Z,4.73
2019-03-16T14:19:43.127Z,5.13
2019-03-16T14:24:47.369Z,2.20
2019-03-16T14:29:52.534Z,3.67
2019-03-16T14:34:56.757Z,3.80
2019-03-16T14:40:01.360Z,6.80
2019-03-16T14:45:06.713Z,4.73
2019-03-16T14:50:16.090Z,5.93
2019-03-16T14:55:19.562Z,4.07
2019-03-16T15:00:37.289Z,5.07
2019-03-16T15:05:31.503Z,6.33
2019-03-16T15:10:35.753Z,5.97
2019-03-16T15:15:40.033Z,6.83
2019-03-16T15:20:44.266Z,5.50
2019-03-16T15:25:48.509Z,6.20
2019-03-16T15:30:52.729Z,3.70
2019-03-16T15:35:56.967Z,6.90
2019-03-16T15:41:01.195Z,5.17
2019-03-16T15:46:05.450Z,7.20
2019-03-16T15:51:09.671Z,4.03
2019-03-16T15:56:13.907Z,7.70
2019-03-16T16:01:18.144Z,6.07
2019-03-16T16:06:23.315Z,6.00
2019-03-16T16:11:27.555Z,6.50
2019-03-16T16:16:31.825Z,8.67
2019-03-16T16:21:36.060Z,11.30
2019-03-16T16:26:40.291Z,14.30
2019-03-16T16:31:44.543Z,13.83
2019-03-16T16:36:48.771Z,8.90
2019-03-16T16:41:53.007Z,12.10
2019-03-16T16:46:57.269Z,15.77
2019-03-16T16:52:01.517Z,13.40
2019-03-16T16:57:05.772Z,12.17
2019-03-16T17:02:10.010Z,13.13
2019-03-16T17:07:14.324Z,20.80
2019-03-16T17:12:18.563Z,19.40
2019-03-16T17:17:34.711Z,17.57
2019-03-16T17:22:28.777Z,18.97
2019-03-16T17:27:33.009Z,17.60
2019-03-16T17:32:37.269Z,17.77
2019-03-16T17:37:41.516Z,14.97
2019-03-16T17:42:45.845Z,17.73
2019-03-16T17:47:50.084Z,17.57
2019-03-16T17:52:54.425Z,18.87
2019-03-16T17:57:58.679Z,21.63
2019-03-16T18:03:02.911Z,20.67
2019-03-16T18:08:07.155Z,21.43
2019-03-16T18:13:11.412Z,21.90
2019-03-16T18:18:15.648Z,57.30
2019-03-16T18:23:19.905Z,28.00
2019-03-16T18:28:24.151Z,27.23
2019-03-16T18:33:28.506Z,28.13
2019-03-16T18:38:32.746Z,34.30
2019-03-16T18:43:36.993Z,32.63
2019-03-16T18:48:41.267Z,30.43
2019-03-16T18:53:45.749Z,49.57
2019-03-16T18:58:50.101Z,31.67
2019-03-16T19:03:54.332Z,33.00
2019-03-16T19:08:58.795Z,35.20
2019-03-16T19:14:03.071Z,27.87
2019-03-16T19:19:07.345Z,33.73
2019-03-16T19:24:12.692Z,35.93
2019-03-16T19:29:16.984Z,31.17
2019-03-16T19:34:21.237Z,30.23
2019-03-16T19:39:25.569Z,30.30
2019-03-16T19:44:29.807Z,31.27
2019-03-16T19:49:34.293Z,25.70
2019-03-16T19:54:38.640Z,23.73
2019-03-16T19:59:42.919Z,20.57
2019-03-16T20:04:47.192Z,21.73
2019-03-16T20:09:51.444Z,21.87
2019-03-16T20:14:55.762Z,25.83
2019-03-16T20:20:00.081Z,22.27
2019-03-16T20:25:04.679Z,25.03
2019-03-16T20:30:09.509Z,26.20
2019-03-16T20:35:13.764Z,28.13
2019-03-16T20:40:18.065Z,22.93
2019-03-16T20:45:22.484Z,24.17
2019-03-16T20:50:26.918Z,20.17
2019-03-16T20:55:34.211Z,22.40
2019-03-16T21:00:37.178Z,19.67
2019-03-16T21:05:41.507Z,26.80
2019-03-16T21:10:45.852Z,17.37
2019-03-16T21:15:50.115Z,19.30
2019-03-16T21:20:54.402Z,16.73
2019-03-16T21:25:58.659Z,15.10
2019-03-16T21:31:02.946Z,14.53
2019-03-16T21:36:07.167Z,11.97
2019-03-16T21:41:11.420Z,11.27
2019-03-16T21:46:15.661Z,12.10
2019-03-16T21:51:19.909Z,11.30
2019-03-16T21:56:24.145Z,13.63
2019-03-16T22:01:28.389Z,10.47
2019-03-16T22:06:32.631Z,8.53
2019-03-16T22:11:36.860Z,10.17
2019-03-16T22:16:41.111Z,9.17
2019-03-16T22:21:45.337Z,10.73
2019-03-16T22:26:49.582Z,5.53
2019-03-16T22:31:53.815Z,6.67
2019-03-16T22:36:58.051Z,7.30
2019-03-16T22:42:02.398Z,6.57
2019-03-16T22:47:06.621Z,5.93
2019-03-16T22:52:10.872Z,6.67
2019-03-16T22:57:15.096Z,4.83
2019-03-16T23:02:19.367Z,12.57
2019-03-16T23:07:23.607Z,7.53
2019-03-16T23:12:27.861Z,12.47
2019-03-16T23:17:32.099Z,8.70
2019-03-16T23:22:36.428Z,9.47
2019-03-16T23:27:40.686Z,6.73
2019-03-16T23:32:44.922Z,8.00
2019-03-16T23:37:49.230Z,6.53
2019-03-16T23:42:53.458Z,10.23
2019-03-16T23:47:57.684Z,7.07
2019-03-16T23:53:01.927Z,7.70
2019-03-16T23:58:06.151Z,8.80
